createdAt,value
2023-04-02T00:01:41.272Z,98650.72
2023-04-02T00:04:43.115Z,98647.72
2023-04-02T00:07:53.842Z,98655.03
2023-04-02T00:11:01.223Z,98654.53
2023-04-02T00:14:17.874Z,98656.03
2023-04-02T00:17:24.693Z,98659.84
2023-04-02T00:20:34.339Z,98657.53
2023-04-02T00:23:41.983Z,98648.69
2023-04-02T00:26:49.554Z,98649.34
2023-04-02T00:29:57.077Z,98662.16
2023-04-02T00:32:59.376Z,98666.81
2023-04-02T00:36:09.811Z,98668.66
2023-04-02T00:39:19.093Z,98656.31
2023-04-02T00:42:21.359Z,98655.81
2023-04-02T00:45:24.879Z,98659.31
2023-04-02T00:48:48.903Z,98660.97
2023-04-02T00:51:56.843Z,98657.47
2023-04-02T00:55:12.849Z,98653.00
2023-04-02T00:58:27.300Z,98658.31
2023-04-02T01:01:39.003Z,98652.81
2023-04-02T01:04:41.808Z,98648.81
2023-04-02T01:08:02.614Z,98644.94
2023-04-02T01:11:35.391Z,98642.13
2023-04-02T01:14:58.944Z,98641.63
2023-04-02T01:18:18.715Z,98643.28
2023-04-02T01:21:35.300Z,98645.28
2023-04-02T01:24:37.478Z,98645.94
2023-04-02T01:27:46.613Z,98639.59
2023-04-02T01:30:53.005Z,98643.94
2023-04-02T01:34:03.043Z,98637.94
2023-04-02T01:37:13.994Z,98646.59
2023-04-02T01:40:18.797Z,98638.63
2023-04-02T01:44:08.432Z,98641.44
2023-04-02T01:47:13.542Z,98653.09
2023-04-02T01:50:37.328Z,98639.94
2023-04-02T01:53:42.546Z,98642.56
2023-04-02T01:56:47.275Z,98646.56
2023-04-02T01:59:49.526Z,98649.22
2023-04-02T02:02:52.270Z,98655.03
2023-04-02T02:05:56.983Z,98651.69
2023-04-02T02:09:05.449Z,98652.53
2023-04-02T02:12:22.917Z,98652.84
2023-04-02T02:15:27.690Z,98656.00
2023-04-02T02:18:30.172Z,98652.13
2023-04-02T02:21:48.223Z,98653.66
2023-04-02T02:24:50.745Z,98648.91
2023-04-02T02:28:01.600Z,98648.28
2023-04-02T02:31:24.296Z,98656.47
2023-04-02T02:34:39.242Z,98648.16
2023-04-02T02:37:46.545Z,98656.31
2023-04-02T02:40:57.911Z,98664.78
2023-04-02T02:44:14.041Z,98660.28
2023-04-02T02:47:25.103Z,98666.09
2023-04-02T02:50:31.838Z,98659.91
2023-04-02T02:53:53.663Z,98661.44
2023-04-02T02:57:01.661Z,98662.91
2023-04-02T03:00:08.310Z,98669.53
2023-04-02T03:03:26.397Z,98673.03
2023-04-02T03:06:33.027Z,98680.66
2023-04-02T03:09:51.776Z,98678.97
2023-04-02T03:13:08.581Z,98678.66
2023-04-02T03:16:23.705Z,98673.50
2023-04-02T03:19:35.997Z,98678.50
2023-04-02T03:23:02.676Z,98669.31
2023-04-02T03:26:10.655Z,98671.66
2023-04-02T03:29:22.315Z,98666.34
2023-04-02T03:32:32.128Z,98675.16
2023-04-02T03:35:46.614Z,98676.31
2023-04-02T03:39:17.266Z,98670.69
2023-04-02T03:42:28.069Z,98676.00
2023-04-02T03:45:39.175Z,98674.19
2023-04-02T03:48:54.720Z,98683.06
2023-04-02T03:52:06.328Z,98686.69
2023-04-02T03:55:20.118Z,98687.84
2023-04-02T03:58:38.906Z,98685.88
2023-04-02T04:01:57.555Z,98687.53
2023-04-02T04:05:01.889Z,98684.25
2023-04-02T04:08:08.103Z,98682.72
2023-04-02T04:11:16.093Z,98691.91
2023-04-02T04:14:32.343Z,98691.41
2023-04-02T04:17:58.082Z,98702.56
2023-04-02T04:21:30.125Z,98699.28
2023-04-02T04:24:39.454Z,98690.66
2023-04-02T04:27:48.610Z,98696.34
2023-04-02T04:31:08.730Z,98696.03
2023-04-02T04:34:22.670Z,98695.06
2023-04-02T04:37:33.780Z,98700.13
2023-04-02T04:40:45.363Z,98705.63
2023-04-02T04:43:52.051Z,98699.66
2023-04-02T04:47:02.526Z,98704.69
2023-04-02T04:50:16.030Z,98703.53
2023-04-02T04:53:22.697Z,98701.41
2023-04-02T04:56:29.919Z,98706.59
2023-04-02T05:00:23.154Z,98711.28
2023-04-02T05:03:51.376Z,98710.81
2023-04-02T05:07:03.793Z,98712.16
2023-04-02T05:10:19.521Z,98715.50
2023-04-02T05:13:32.923Z,98716.19
2023-04-02T05:16:46.189Z,98717.22
2023-04-02T05:20:09.966Z,98720.72
2023-04-02T05:23:27.125Z,98718.56
2023-04-02T05:26:37.623Z,98729.41
2023-04-02T05:29:44.655Z,98720.22
2023-04-02T05:33:01.277Z,98719.69
2023-04-02T05:36:11.842Z,98716.84
2023-04-02T05:39:24.787Z,98726.97
2023-04-02T05:42:36.471Z,98717.19
2023-04-02T05:45:54.885Z,98719.25
2023-04-02T05:49:00.186Z,98724.84
2023-04-02T05:52:06.961Z,98733.97
2023-04-02T05:55:14.863Z,98723.03
2023-04-02T05:58:36.335Z,98724.00
2023-04-02T06:02:27.138Z,98729.41
2023-04-02T06:05:38.136Z,98719.13
2023-04-02T06:08:47.617Z,98726.81
2023-04-02T06:12:24.529Z,98730.38
2023-04-02T06:15:31.848Z,98738.41
2023-04-02T06:18:40.808Z,98737.13
2023-04-02T06:21:49.774Z,98747.09
2023-04-02T06:25:12.096Z,98730.94
2023-04-02T06:28:21.544Z,98736.88
2023-04-02T06:31:52.422Z,98742.00
2023-04-02T06:34:56.296Z,98730.63
2023-04-02T06:38:06.989Z,98740.06
2023-04-02T06:41:19.917Z,98726.63
2023-04-02T06:44:38.130Z,98736.50
2023-04-02T06:47:57.288Z,98736.50
2023-04-02T06:51:18.277Z,98739.16
2023-04-02T06:54:23.149Z,98738.78
2023-04-02T06:57:32.891Z,98746.31
2023-04-02T07:00:39.234Z,98743.25
2023-04-02T07:03:43.276Z,98747.78
2023-04-02T07:06:54.632Z,98745.47
2023-04-02T07:09:59.311Z,98748.16
2023-04-02T07:13:04.006Z,98739.41
2023-04-02T07:16:06.555Z,98739.94
2023-04-02T07:19:19.239Z,98733.56
2023-04-02T07:22:22.317Z,98734.41
2023-04-02T07:25:35.133Z,98732.28
2023-04-02T07:28:37.234Z,98733.88
2023-04-02T07:31:41.768Z,98731.47
2023-04-02T07:34:43.598Z,98722.81
2023-04-02T07:37:45.800Z,98734.63
2023-04-02T07:40:50.457Z,98739.38
2023-04-02T07:43:54.851Z,98732.88
2023-04-02T07:46:56.690Z,98726.88
2023-04-02T07:49:58.647Z,98732.88
2023-04-02T07:53:01.147Z,98721.88
2023-04-02T07:56:04.830Z,98721.56
2023-04-02T07:59:06.953Z,98713.31
2023-04-02T08:02:20.326Z,98722.31
2023-04-02T08:05:22.672Z,98718.22
2023-04-02T08:08:25.564Z,98714.47
2023-04-02T08:11:27.783Z,98713.41
2023-04-02T08:14:32.735Z,98713.41
2023-04-02T08:17:34.863Z,98705.94
2023-04-02T08:20:37.147Z,98707.63
2023-04-02T08:23:39.083Z,98703.91
2023-04-02T08:26:41.712Z,98704.75
2023-04-02T08:29:44.454Z,98697.50
2023-04-02T08:32:46.417Z,98704.56
2023-04-02T08:35:49.393Z,98702.84
2023-04-02T08:38:51.321Z,98710.25
2023-04-02T08:41:53.128Z,98708.97
2023-04-02T08:45:23.576Z,98700.81
2023-04-02T08:48:28.070Z,98686.16
2023-04-02T08:51:36.514Z,98691.53
2023-04-02T08:54:38.480Z,98691.66
2023-04-02T08:57:50.533Z,98693.16
2023-04-02T09:00:55.991Z,98692.84
2023-04-02T09:03:59.617Z,98698.13
2023-04-02T09:07:01.805Z,98699.84
2023-04-02T09:10:04.501Z,98698.66
2023-04-02T09:13:13.926Z,98700.03
2023-04-02T09:16:22.601Z,98698.16
2023-04-02T09:19:44.661Z,98701.88
2023-04-02T09:22:48.694Z,98702.97
2023-04-02T09:26:03.680Z,98691.78
2023-04-02T09:29:12.658Z,98686.38
2023-04-02T09:32:22.320Z,98685.06
2023-04-02T09:35:32.433Z,98683.31
2023-04-02T09:38:35.521Z,98686.28
2023-04-02T09:41:37.539Z,98692.72
2023-04-02T09:44:39.405Z,98695.44
2023-04-02T09:47:42.484Z,98686.31
2023-04-02T09:50:44.501Z,98688.00
2023-04-02T09:54:07.573Z,98674.50
2023-04-02T09:57:28.163Z,98675.09
2023-04-02T10:00:32.421Z,98688.41
2023-04-02T10:03:35.077Z,98681.34
2023-04-02T10:06:37.564Z,98680.63
2023-04-02T10:09:48.569Z,98685.63
2023-04-02T10:13:00.250Z,98674.78
2023-04-02T10:16:07.517Z,98682.81
2023-04-02T10:19:33.364Z,98682.13
2023-04-02T10:22:35.234Z,98677.97
2023-04-02T10:25:50.607Z,98690.41
2023-04-02T10:29:12.843Z,98679.72
2023-04-02T10:32:34.959Z,98682.09
2023-04-02T10:35:43.233Z,98688.44
2023-04-02T10:39:30.066Z,98681.91
2023-04-02T10:42:42.373Z,98691.19
2023-04-02T10:45:54.758Z,98690.50
2023-04-02T10:49:15.580Z,98699.50
2023-04-02T10:52:33.703Z,98702.84
2023-04-02T10:55:43.276Z,98700.78
2023-04-02T10:59:05.551Z,98715.34
2023-04-02T11:02:38.969Z,98698.53
2023-04-02T11:05:50.489Z,98710.59
2023-04-02T11:08:58.860Z,98712.22
2023-04-02T11:12:03.567Z,98711.19
2023-04-02T11:15:19.829Z,98716.34
2023-04-02T11:18:37.572Z,98716.78
2023-04-02T11:21:54.931Z,98713.88
2023-04-02T11:24:58.565Z,98704.75
2023-04-02T11:28:27.222Z,98706.81
2023-04-02T11:31:31.517Z,98707.66
2023-04-02T11:34:42.980Z,98702.25
2023-04-02T11:37:46.185Z,98703.50
2023-04-02T11:40:55.197Z,98703.28
2023-04-02T11:44:01.615Z,98702.06
2023-04-02T11:47:26.746Z,98712.63
2023-04-02T11:50:28.769Z,98712.84
2023-04-02T11:53:34.545Z,98710.38
2023-04-02T11:56:49.121Z,98706.66
2023-04-02T12:00:18.495Z,98704.34
2023-04-02T12:03:56.701Z,98692.75
2023-04-02T12:07:18.463Z,98700.22
2023-04-02T12:10:23.332Z,98705.63
2023-04-02T12:13:40.605Z,98696.06
2023-04-02T12:16:42.676Z,98698.97
2023-04-02T12:19:53.730Z,98701.03
2023-04-02T12:22:58.707Z,98693.56
2023-04-02T12:26:08.954Z,98700.19
2023-04-02T12:29:27.429Z,98686.91
2023-04-02T12:32:33.493Z,98683.97
2023-04-02T12:35:36.563Z,98693.91
2023-04-02T12:38:53.877Z,98688.06
2023-04-02T12:41:56.507Z,98696.19
2023-04-02T12:44:58.903Z,98690.00
2023-04-02T12:48:09.114Z,98692.31
2023-04-02T12:51:11.341Z,98680.69
2023-04-02T12:54:18.552Z,98685.91
2023-04-02T12:57:26.465Z,98681.13
2023-04-02T13:00:31.167Z,98673.84
2023-04-02T13:03:40.713Z,98673.25
2023-04-02T13:06:52.150Z,98679.88
2023-04-02T13:09:57.026Z,98682.38
2023-04-02T13:13:01.623Z,98670.31
2023-04-02T13:16:07.552Z,98672.59
2023-04-02T13:19:33.683Z,98669.50
2023-04-02T13:22:35.753Z,98663.91
2023-04-02T13:25:37.756Z,98658.94
2023-04-02T13:28:39.691Z,98653.09
2023-04-02T13:31:41.741Z,98661.44
2023-04-02T13:34:43.760Z,98652.47
2023-04-02T13:37:47.809Z,98657.28
2023-04-02T13:40:49.704Z,98645.44
2023-04-02T13:43:53.011Z,98651.66
2023-04-02T13:46:57.725Z,98653.13
2023-04-02T13:49:59.533Z,98651.47
2023-04-02T13:53:09.700Z,98650.03
2023-04-02T13:56:14.827Z,98646.50
2023-04-02T13:59:16.785Z,98645.88
2023-04-02T14:02:25.528Z,98643.38
2023-04-02T14:05:46.903Z,98650.00
2023-04-02T14:08:48.683Z,98641.91
2023-04-02T14:12:04.735Z,98638.19
2023-04-02T14:15:41.137Z,98637.34
2023-04-02T14:19:01.700Z,98639.22
2023-04-02T14:22:14.741Z,98643.78
2023-04-02T14:25:37.709Z,98635.69
2023-04-02T14:29:10.546Z,98634.88
2023-04-02T14:32:21.035Z,98639.03
2023-04-02T14:35:36.651Z,98634.88
2023-04-02T14:38:44.954Z,98630.69
2023-04-02T14:41:57.092Z,98630.53
2023-04-02T14:45:12.717Z,98629.88
2023-04-02T14:48:21.443Z,98626.56
2023-04-02T14:51:33.346Z,98628.84
2023-04-02T14:54:45.460Z,98631.31
2023-04-02T14:57:53.633Z,98621.38
2023-04-02T15:01:00.734Z,98626.78
2023-04-02T15:04:12.825Z,98624.50
2023-04-02T15:07:22.243Z,98631.34
2023-04-02T15:10:52.348Z,98630.09
2023-04-02T15:14:05.417Z,98626.78
2023-04-02T15:17:11.433Z,98629.69
2023-04-02T15:20:16.159Z,98627.41
2023-04-02T15:23:31.217Z,98628.66
2023-04-02T15:26:48.411Z,98629.88
2023-04-02T15:29:51.301Z,98638.19
2023-04-02T15:32:59.799Z,98644.81
2023-04-02T15:36:19.971Z,98641.06
2023-04-02T15:39:21.921Z,98640.25
2023-04-02T15:42:33.172Z,98645.00
2023-04-02T15:45:53.613Z,98646.22
2023-04-02T15:49:20.449Z,98654.53
2023-04-02T15:52:50.117Z,98647.47
2023-04-02T15:56:23.049Z,98652.63
2023-04-02T15:59:47.324Z,98649.09
2023-04-02T16:03:02.674Z,98658.19
2023-04-02T16:06:25.443Z,98664.41
2023-04-02T16:09:30.942Z,98663.13
2023-04-02T16:12:34.947Z,98663.34
2023-04-02T16:15:46.141Z,98659.63
2023-04-02T16:18:56.862Z,98652.97
2023-04-02T16:22:05.670Z,98660.84
2023-04-02T16:25:16.550Z,98656.69
2023-04-02T16:28:22.977Z,98660.63
2023-04-02T16:31:57.766Z,98656.28
2023-04-02T16:38:54.902Z,98669.06
2023-04-02T16:42:11.704Z,98671.31
2023-04-02T16:45:19.726Z,98666.50
2023-04-02T16:48:42.786Z,98669.59
2023-04-02T16:52:04.940Z,98668.31
2023-04-02T16:55:32.867Z,98683.00
2023-04-02T16:58:43.816Z,98685.47
2023-04-02T17:01:59.840Z,98678.59
2023-04-02T17:05:29.459Z,98676.06
2023-04-02T17:08:42.000Z,98679.94
2023-04-02T17:12:01.290Z,98673.69
2023-04-02T17:15:26.620Z,98679.44
2023-04-02T17:18:34.028Z,98681.25
2023-04-02T17:21:36.085Z,98682.03
2023-04-02T17:25:04.746Z,98678.28
2023-04-02T17:28:15.069Z,98682.38
2023-04-02T17:31:30.943Z,98681.09
2023-04-02T17:34:33.090Z,98681.50
2023-04-02T17:38:00.394Z,98676.50
2023-04-02T17:41:17.663Z,98681.44
2023-04-02T17:44:42.755Z,98686.03
2023-04-02T17:47:47.227Z,98681.88
2023-04-02T17:51:11.594Z,98687.66
2023-04-02T17:54:37.172Z,98687.41
2023-04-02T17:58:11.269Z,98705.81
2023-04-02T18:01:34.823Z,98699.16
2023-04-02T18:04:58.267Z,98703.53
2023-04-02T18:08:45.683Z,98695.66
2023-04-02T18:12:29.535Z,98699.94
2023-04-02T18:16:01.436Z,98699.56
2023-04-02T18:19:12.030Z,98712.16
2023-04-02T18:22:37.511Z,98702.44
2023-04-02T18:25:50.430Z,98703.28
2023-04-02T18:28:58.017Z,98697.06
2023-04-02T18:32:27.368Z,98702.44
2023-04-02T18:35:35.778Z,98702.75
2023-04-02T18:38:54.025Z,98713.50
2023-04-02T18:42:19.081Z,98707.25
2023-04-02T18:45:35.493Z,98705.56
2023-04-02T18:48:52.079Z,98709.84
2023-04-02T18:52:11.323Z,98718.75
2023-04-02T18:55:20.995Z,98722.84
2023-04-02T18:58:29.828Z,98723.50
2023-04-02T19:05:02.883Z,98722.91
2023-04-02T19:08:28.815Z,98721.06
2023-04-02T19:11:31.638Z,98721.06
2023-04-02T19:14:33.453Z,98716.09
2023-04-02T19:17:45.067Z,98714.78
2023-04-02T19:20:56.259Z,98710.56
2023-04-02T19:24:16.449Z,98727.78
2023-04-02T19:27:28.811Z,98722.78
2023-04-02T19:30:49.966Z,98731.94
2023-04-02T19:34:06.791Z,98730.63
2023-04-02T19:37:13.778Z,98735.63
2023-04-02T19:40:33.604Z,98731.19
2023-04-02T19:43:38.676Z,98734.03
2023-04-02T19:46:42.692Z,98733.94
2023-04-02T19:49:45.058Z,98732.88
2023-04-02T19:52:46.995Z,98737.22
2023-04-02T19:55:51.015Z,98738.31
2023-04-02T19:58:52.932Z,98739.84
2023-04-02T20:01:54.845Z,98740.59
2023-04-02T20:04:56.703Z,98734.59
2023-04-02T20:08:00.136Z,98737.81
2023-04-02T20:11:05.938Z,98736.00
2023-04-02T20:14:07.839Z,98738.41
2023-04-02T20:17:12.376Z,98745.13
2023-04-02T20:20:16.983Z,98733.28
2023-04-02T20:23:19.137Z,98734.63
2023-04-02T20:26:23.377Z,98737.47
2023-04-02T20:29:28.124Z,98718.50
2023-04-02T20:32:30.187Z,98715.28
2023-04-02T20:35:34.592Z,98711.78
2023-04-02T20:38:39.872Z,98709.81
2023-04-02T20:41:44.447Z,98704.81
2023-04-02T20:44:46.438Z,98714.19
2023-04-02T20:47:56.060Z,98707.00
2023-04-02T20:50:59.821Z,98714.72
2023-04-02T20:54:01.918Z,98694.50
2023-04-02T20:57:05.365Z,98701.22
2023-04-02T21:00:08.333Z,98700.56
2023-04-02T21:03:10.427Z,98701.91
2023-04-02T21:06:14.315Z,98701.44
2023-04-02T21:09:19.594Z,98702.09
2023-04-02T21:12:21.541Z,98709.50
2023-04-02T21:15:23.430Z,98691.97
2023-04-02T21:18:26.188Z,98691.13
2023-04-02T21:21:28.809Z,98694.16
2023-04-02T21:24:30.754Z,98691.66
2023-04-02T21:27:32.624Z,98690.50
2023-04-02T21:30:34.485Z,98686.16
2023-04-02T21:33:39.437Z,98684.31
2023-04-02T21:36:45.639Z,98676.13
2023-04-02T21:39:47.433Z,98673.31
2023-04-02T21:42:52.929Z,98673.13
2023-04-02T21:46:02.028Z,98666.66
2023-04-02T21:49:05.370Z,98656.34
2023-04-02T21:52:07.366Z,98637.09
2023-04-02T21:55:09.450Z,98639.78
2023-04-02T21:58:11.309Z,98617.91
2023-04-02T22:01:24.342Z,98615.41
2023-04-02T22:04:30.758Z,98607.22
2023-04-02T22:07:32.746Z,98606.03
2023-04-02T22:10:44.079Z,98597.84
2023-04-02T22:13:48.067Z,98602.84
2023-04-02T22:16:50.164Z,98601.19
2023-04-02T22:19:54.656Z,98598.50
2023-04-02T22:22:56.625Z,98594.66
2023-04-02T22:25:59.818Z,98587.94
2023-04-02T22:29:02.948Z,98581.75
2023-04-02T22:32:04.939Z,98583.59
2023-04-02T22:35:09.339Z,98582.47
2023-04-02T22:38:11.314Z,98581.63
2023-04-02T22:41:16.208Z,98586.16
2023-04-02T22:44:18.065Z,98577.28
2023-04-02T22:47:19.882Z,98571.13
2023-04-02T22:50:24.751Z,98573.44
2023-04-02T22:53:26.637Z,98565.41
2023-04-02T22:56:32.070Z,98570.75
2023-04-02T22:59:34.261Z,98563.41
2023-04-02T23:02:36.257Z,98560.91
2023-04-02T23:05:38.217Z,98560.91
2023-04-02T23:08:40.934Z,98558.41
2023-04-02T23:11:45.174Z,98554.91
2023-04-02T23:14:47.509Z,98554.38
2023-04-02T23:17:49.461Z,98548.38
2023-04-02T23:20:54.369Z,98548.03
2023-04-02T23:23:56.388Z,98548.38
2023-04-02T23:26:58.315Z,98550.03
2023-04-02T23:30:00.168Z,98543.03
2023-04-02T23:33:03.579Z,98546.53
2023-04-02T23:36:10.873Z,98530.19
2023-04-02T23:39:13.996Z,98530.38
2023-04-02T23:42:16.148Z,98525.84
2023-04-02T23:45:20.272Z,98522.53
2023-04-02T23:48:22.147Z,98523.06
2023-04-02T23:51:24.845Z,98522.56
2023-04-02T23:54:26.890Z,98513.06
2023-04-02T23:57:28.743Z,98510.09
